Hickory Hill, Arkansas
Current Conditions -  °F | °C
As of 9:53 AM on Friday 19 Dec 2014 (Local Time) from KRUE Reporting Station
Haze Haze  
Wind Chill: 39°   Ceiling: 1300
Heat Index: 42°   Visibility: 6mi
Dew Point: 38°   Wind: 5mph
Humidity: 85%   Direction: 80°E
Pressure: 30.26"   Gusts: NA
Location:  35.227°N, 92.6879°W
Report Text: KRUE 191553Z AUTO 08004KT 6SM BR OVC013 06/03 A3026 RMK AO2 SLP246 T00560033
Loading
Personal Weather Stations






























Interactive Weather Map New forecast layout! Learn more

10-Day Weather Forecast

Advertisements
Track Severe Weather on mobile